createdAt,value
2018-09-08T00:02:55.787Z,1.10
2018-09-08T00:07:59.174Z,1.30
2018-09-08T00:13:02.458Z,1.17
2018-09-08T00:18:11.123Z,1.40
2018-09-08T00:23:19.694Z,1.53
2018-09-08T00:28:31.976Z,1.40
2018-09-08T00:33:39.857Z,1.80
2018-09-08T00:38:43.144Z,2.27
2018-09-08T00:43:46.379Z,1.47
2018-09-08T00:48:49.736Z,1.23
2018-09-08T00:53:53.874Z,0.70
2018-09-08T00:59:04.193Z,0.80
2018-09-08T01:04:07.430Z,0.80
2018-09-08T01:09:12.767Z,0.93
2018-09-08T01:14:16.050Z,1.40
2018-09-08T01:19:19.338Z,1.03
2018-09-08T01:24:22.604Z,1.17
2018-09-08T01:29:25.828Z,1.10
2018-09-08T01:34:29.224Z,0.87
2018-09-08T01:39:32.594Z,0.90
2018-09-08T01:44:35.829Z,1.37
2018-09-08T01:49:39.098Z,1.43
2018-09-08T01:54:42.351Z,1.47
2018-09-08T01:59:45.574Z,1.57
2018-09-08T02:04:51.826Z,1.50
2018-09-08T02:09:55.030Z,1.30
2018-09-08T02:14:58.190Z,1.13
2018-09-08T02:20:01.463Z,1.40
2018-09-08T02:25:04.802Z,1.40
2018-09-08T02:30:08.623Z,1.50
2018-09-08T02:35:11.962Z,1.37
2018-09-08T02:40:15.241Z,1.40
2018-09-08T02:45:18.825Z,1.60
2018-09-08T02:50:35.324Z,1.43
2018-09-08T02:55:37.858Z,1.40
2018-09-08T03:00:40.098Z,1.67
2018-09-08T03:05:42.337Z,1.50
2018-09-08T03:10:44.718Z,1.67
2018-09-08T03:15:46.991Z,1.87
2018-09-08T03:20:49.270Z,1.50
2018-09-08T03:25:51.482Z,1.90
2018-09-08T03:30:53.722Z,1.50
2018-09-08T03:35:55.952Z,2.20
2018-09-08T03:40:58.213Z,1.80
2018-09-08T03:46:00.450Z,1.73
2018-09-08T03:51:02.690Z,1.67
2018-09-08T03:56:04.927Z,1.90
2018-09-08T04:01:07.180Z,1.93
2018-09-08T04:06:11.502Z,1.90
2018-09-08T04:11:16.925Z,1.90
2018-09-08T04:16:20.151Z,1.90
2018-09-08T04:21:23.420Z,2.43
2018-09-08T04:26:26.714Z,2.60
2018-09-08T04:31:30.018Z,2.30
2018-09-08T04:36:33.254Z,2.20
2018-09-08T04:41:43.319Z,2.20
2018-09-08T04:46:46.555Z,2.50
2018-09-08T04:51:49.906Z,2.43
2018-09-08T04:56:55.225Z,2.40
2018-09-08T05:01:58.506Z,2.77
2018-09-08T05:07:01.727Z,2.43
2018-09-08T05:12:05.005Z,2.53
2018-09-08T05:17:08.226Z,2.80
2018-09-08T05:22:11.466Z,2.57
2018-09-08T05:27:14.749Z,2.40
2018-09-08T05:32:18.107Z,2.97
2018-09-08T05:37:21.326Z,2.80
2018-09-08T05:42:24.574Z,2.97
2018-09-08T05:47:31.156Z,3.37
2018-09-08T05:52:34.425Z,2.70
2018-09-08T05:57:41.892Z,3.33
2018-09-08T06:02:45.646Z,3.00
2018-09-08T06:07:51.281Z,3.17
2018-09-08T06:12:57.130Z,3.00
2018-09-08T06:18:00.354Z,3.47
2018-09-08T06:23:03.657Z,3.40
2018-09-08T06:28:12.606Z,3.30
2018-09-08T06:33:15.856Z,2.80
2018-09-08T06:38:20.147Z,2.47
2018-09-08T06:43:23.473Z,2.93
2018-09-08T06:48:28.966Z,2.47
2018-09-08T06:53:32.217Z,2.70
2018-09-08T06:58:35.474Z,2.67
2018-09-08T07:03:38.702Z,3.03
2018-09-08T07:08:43.265Z,3.17
2018-09-08T07:13:52.574Z,2.57
2018-09-08T07:18:59.613Z,2.70
2018-09-08T07:24:02.945Z,2.23
2018-09-08T07:29:11.645Z,2.00
2018-09-08T07:34:14.891Z,2.87
2018-09-08T07:39:18.330Z,2.60
2018-09-08T07:44:24.638Z,2.40
2018-09-08T07:49:28.477Z,2.07
2018-09-08T07:54:32.866Z,2.13
2018-09-08T07:59:36.190Z,1.87
2018-09-08T08:04:39.580Z,2.20
2018-09-08T08:09:59.481Z,1.93
2018-09-08T08:15:02.889Z,1.63
2018-09-08T08:20:06.259Z,2.03
2018-09-08T08:25:09.553Z,1.93
2018-09-08T08:30:12.881Z,1.77
2018-09-08T08:35:22.990Z,1.87
2018-09-08T08:40:27.608Z,1.87
2018-09-08T08:45:34.698Z,1.83
2018-09-08T08:50:50.161Z,1.90
2018-09-08T08:55:53.539Z,1.90
2018-09-08T09:00:56.799Z,2.10
2018-09-08T09:06:00.075Z,2.20
2018-09-08T09:11:04.327Z,1.77
2018-09-08T09:16:21.056Z,1.50
2018-09-08T09:21:35.741Z,2.03
2018-09-08T09:26:39.026Z,1.60
2018-09-08T09:31:42.774Z,2.00
2018-09-08T09:36:46.259Z,1.83
2018-09-08T09:41:51.641Z,2.03
2018-09-08T09:46:54.966Z,1.47
2018-09-08T09:52:03.030Z,2.07
2018-09-08T09:57:12.057Z,1.70
2018-09-08T10:08:02.723Z,1.80
2018-09-08T10:13:09.139Z,1.40
2018-09-08T10:18:12.503Z,1.60
2018-09-08T10:23:15.849Z,1.00
2018-09-08T10:28:19.050Z,1.30
2018-09-08T10:33:22.307Z,1.73
2018-09-08T10:38:25.660Z,1.50
2018-09-08T10:43:29.998Z,1.73
2018-09-08T10:48:34.309Z,1.60
2018-09-08T10:53:41.777Z,1.30
2018-09-08T10:58:48.310Z,1.60
2018-09-08T11:03:51.651Z,1.63
2018-09-08T11:08:56.151Z,1.20
2018-09-08T11:13:59.426Z,1.47
2018-09-08T11:19:10.381Z,1.33
2018-09-08T11:24:15.714Z,1.23
2018-09-08T11:29:20.826Z,1.33
2018-09-08T11:34:24.398Z,1.77
2018-09-08T11:39:27.722Z,1.77
2018-09-08T11:44:30.990Z,1.50
2018-09-08T11:49:35.316Z,1.60
2018-09-08T11:54:38.524Z,1.60
2018-09-08T11:59:41.939Z,1.00
2018-09-08T12:04:46.306Z,1.40
2018-09-08T12:09:49.654Z,1.60
2018-09-08T12:14:53.018Z,1.13
2018-09-08T12:19:56.345Z,1.40
2018-09-08T12:24:59.618Z,1.33
2018-09-08T12:30:05.063Z,1.30
2018-09-08T12:35:10.106Z,2.20
2018-09-08T12:40:13.746Z,1.67
2018-09-08T12:45:18.030Z,1.37
2018-09-08T12:50:21.287Z,4.73
2018-09-08T12:55:27.658Z,2.70
2018-09-08T13:00:31.058Z,1.27
2018-09-08T13:05:35.519Z,2.47
2018-09-08T13:10:39.509Z,1.30
2018-09-08T13:15:45.687Z,1.40
2018-09-08T13:20:50.169Z,1.63
2018-09-08T13:25:55.221Z,1.07
2018-09-08T13:30:58.568Z,1.43
2018-09-08T13:36:01.905Z,1.57
2018-09-08T13:41:05.231Z,0.83
2018-09-08T13:46:08.530Z,0.83
2018-09-08T13:51:11.787Z,1.27
2018-09-08T13:56:15.592Z,1.40
2018-09-08T14:01:22.431Z,1.37
2018-09-08T14:06:27.988Z,1.40
2018-09-08T14:11:32.711Z,1.60
2018-09-08T14:16:41.424Z,1.30
2018-09-08T14:21:54.722Z,1.10
2018-09-08T14:27:01.432Z,1.30
2018-09-08T14:32:04.810Z,1.60
2018-09-08T14:37:09.075Z,1.60
2018-09-08T14:42:12.365Z,1.00
2018-09-08T14:47:15.658Z,1.10
2018-09-08T14:52:18.895Z,1.00
2018-09-08T14:57:22.853Z,1.13
2018-09-08T15:02:26.014Z,1.33
2018-09-08T15:07:35.635Z,1.90
2018-09-08T15:12:39.046Z,1.13
2018-09-08T15:17:43.491Z,1.33
2018-09-08T15:22:51.853Z,1.30
2018-09-08T15:28:08.147Z,1.23
2018-09-08T15:33:17.998Z,3.33
2018-09-08T15:38:22.809Z,1.53
2018-09-08T15:43:29.258Z,1.17
2018-09-08T15:48:34.053Z,1.27
2018-09-08T15:53:37.318Z,1.50
2018-09-08T15:58:41.131Z,1.07
2018-09-08T16:03:49.384Z,1.37
2018-09-08T16:08:57.422Z,1.20
2018-09-08T16:14:03.897Z,1.20
2018-09-08T16:19:12.541Z,1.80
2018-09-08T16:24:15.926Z,2.00
2018-09-08T16:29:19.699Z,1.30
2018-09-08T16:34:23.036Z,1.20
2018-09-08T16:39:26.342Z,1.50
2018-09-08T16:44:48.784Z,1.30
2018-09-08T16:49:56.128Z,1.53
2018-09-08T16:54:59.655Z,1.50
2018-09-08T17:00:03.502Z,1.30
2018-09-08T17:05:08.159Z,1.10
2018-09-08T17:10:11.432Z,1.10
2018-09-08T17:15:14.669Z,1.27
2018-09-08T17:20:17.874Z,1.13
2018-09-08T17:25:21.033Z,1.67
2018-09-08T17:30:24.371Z,1.97
2018-09-08T17:35:28.682Z,2.20
2018-09-08T17:40:36.493Z,2.07
2018-09-08T17:45:40.686Z,1.90
2018-09-08T17:50:44.421Z,1.60
2018-09-08T17:55:47.885Z,2.00
2018-09-08T18:01:01.285Z,1.80
2018-09-08T18:06:06.673Z,1.07
2018-09-08T18:11:10.525Z,1.83
2018-09-08T18:16:14.362Z,1.50
2018-09-08T18:21:17.601Z,1.60
2018-09-08T18:26:20.839Z,1.77
2018-09-08T18:31:24.170Z,1.60
2018-09-08T18:36:27.786Z,1.63
2018-09-08T18:41:36.682Z,1.60
2018-09-08T18:46:41.019Z,1.40
2018-09-08T18:51:44.532Z,1.97
2018-09-08T18:56:48.190Z,2.20
2018-09-08T19:01:51.601Z,2.40
2018-09-08T19:06:54.841Z,2.13
2018-09-08T19:12:03.008Z,2.50
2018-09-08T19:17:06.364Z,2.73
2018-09-08T19:22:10.806Z,2.60
2018-09-08T19:27:14.254Z,2.37
2018-09-08T19:32:18.660Z,2.00
2018-09-08T19:37:22.266Z,2.37
2018-09-08T19:42:41.836Z,2.40
2018-09-08T19:48:00.577Z,2.40
2018-09-08T19:53:10.285Z,2.37
2018-09-08T19:58:19.855Z,2.57
2018-09-08T20:03:30.977Z,2.60
2018-09-08T20:08:35.522Z,2.83
2018-09-08T20:13:44.858Z,2.37
2018-09-08T20:18:48.638Z,2.43
2018-09-08T20:23:54.123Z,2.77
2018-09-08T20:28:58.018Z,2.20
2018-09-08T20:34:01.276Z,3.23
2018-09-08T20:39:06.980Z,2.47
2018-09-08T20:44:10.324Z,2.50
2018-09-08T20:49:13.679Z,2.97
2018-09-08T20:54:17.258Z,3.80
2018-09-08T20:59:20.546Z,2.80
2018-09-08T21:04:34.122Z,2.87
2018-09-08T21:09:37.526Z,4.70
2018-09-08T21:14:40.792Z,3.30
2018-09-08T21:19:46.090Z,3.20
2018-09-08T21:24:49.385Z,3.80
2018-09-08T21:29:53.894Z,3.13
2018-09-08T21:34:57.176Z,4.60
2018-09-08T21:40:01.018Z,3.70
2018-09-08T21:45:04.490Z,3.07
2018-09-08T21:50:07.866Z,2.53
2018-09-08T21:55:11.618Z,3.00
2018-09-08T22:00:14.974Z,2.70
2018-09-08T22:05:18.434Z,2.63
2018-09-08T22:10:21.758Z,3.00
2018-09-08T22:15:25.044Z,3.13
2018-09-08T22:20:30.619Z,2.80
2018-09-08T22:25:33.995Z,2.63
2018-09-08T22:30:37.616Z,3.07
2018-09-08T22:35:44.093Z,2.77
2018-09-08T22:40:47.819Z,2.70
2018-09-08T22:45:51.231Z,3.27
2018-09-08T22:50:54.554Z,2.83
2018-09-08T22:55:58.038Z,2.80
2018-09-08T23:01:01.519Z,2.80
2018-09-08T23:06:04.854Z,2.97
2018-09-08T23:11:08.680Z,2.70
2018-09-08T23:16:12.110Z,3.27
2018-09-08T23:21:15.506Z,2.97
2018-09-08T23:26:19.181Z,2.90
2018-09-08T23:31:22.461Z,3.37
2018-09-08T23:36:25.798Z,3.13
2018-09-08T23:41:29.881Z,3.53
2018-09-08T23:46:36.018Z,3.17
2018-09-08T23:51:41.428Z,3.00
2018-09-08T23:56:44.754Z,3.03
